createdAt,value
2022-12-08T00:01:54.959Z,50.20
2022-12-08T00:04:24.311Z,59.28
2022-12-08T00:07:11.731Z,55.28
2022-12-08T00:09:42.850Z,57.38
2022-12-08T00:12:26.150Z,56.13
2022-12-08T00:15:03.123Z,49.58
2022-12-08T00:17:39.564Z,56.75
2022-12-08T00:20:29.787Z,66.43
2022-12-08T00:23:01.348Z,62.78
2022-12-08T00:25:37.284Z,62.35
2022-12-08T00:28:05.869Z,58.60
2022-12-08T00:30:40.269Z,60.40
2022-12-08T00:33:12.921Z,63.95
2022-12-08T00:35:47.436Z,61.03
2022-12-08T00:38:15.870Z,60.38
2022-12-08T00:40:47.820Z,60.38
2022-12-08T00:43:37.814Z,61.00
2022-12-08T00:46:25.407Z,64.43
2022-12-08T00:49:13.022Z,59.30
2022-12-08T00:52:03.145Z,55.60
2022-12-08T00:54:50.754Z,57.17
2022-12-08T00:57:38.321Z,56.65
2022-12-08T01:00:25.893Z,58.40
2022-12-08T01:03:13.849Z,63.60
2022-12-08T01:05:42.930Z,58.03
2022-12-08T01:08:12.806Z,64.80
2022-12-08T01:10:41.833Z,59.47
2022-12-08T01:13:15.741Z,59.50
2022-12-08T01:15:57.588Z,65.85
2022-12-08T01:18:46.318Z,69.18
2022-12-08T01:21:24.773Z,66.57
2022-12-08T01:24:13.456Z,60.47
2022-12-08T01:27:01.026Z,66.68
2022-12-08T01:29:51.645Z,68.88
2022-12-08T01:32:39.213Z,57.17
2022-12-08T01:35:26.947Z,62.22
2022-12-08T01:38:00.906Z,62.97
2022-12-08T01:40:33.267Z,62.38
2022-12-08T01:43:02.147Z,63.92
2022-12-08T01:45:32.650Z,75.43
2022-12-08T01:48:26.139Z,72.00
2022-12-08T01:51:07.653Z,59.95
2022-12-08T01:53:41.367Z,73.47
2022-12-08T01:56:27.311Z,68.28
2022-12-08T01:59:01.308Z,66.45
2022-12-08T02:01:51.433Z,67.50
2022-12-08T02:04:31.751Z,74.07
2022-12-08T02:07:19.651Z,76.53
2022-12-08T02:10:07.589Z,75.78
2022-12-08T02:12:56.905Z,73.25
2022-12-08T02:15:38.030Z,83.63
2022-12-08T02:19:08.016Z,78.03
2022-12-08T02:24:29.842Z,71.30
2022-12-08T02:27:02.174Z,75.13
2022-12-08T02:29:47.090Z,76.40
2022-12-08T02:32:24.075Z,66.78
2022-12-08T02:34:58.485Z,75.07
2022-12-08T02:37:32.533Z,72.95
2022-12-08T02:40:10.709Z,77.00
2022-12-08T02:42:49.910Z,76.05
2022-12-08T02:45:25.891Z,76.35
2022-12-08T02:48:13.674Z,73.47
2022-12-08T02:50:56.032Z,67.75
2022-12-08T02:53:24.592Z,69.43
2022-12-08T02:55:53.237Z,70.15
2022-12-08T02:58:32.306Z,68.93
2022-12-08T03:01:17.745Z,70.10
2022-12-08T03:04:06.475Z,64.47
2022-12-08T03:06:46.730Z,72.57
2022-12-08T03:09:18.344Z,68.25
2022-12-08T03:11:47.034Z,70.18
2022-12-08T03:14:17.653Z,67.00
2022-12-08T03:16:48.035Z,60.65
2022-12-08T03:19:17.511Z,68.95
2022-12-08T03:21:47.660Z,63.33
2022-12-08T03:24:16.437Z,68.50
2022-12-08T03:27:05.871Z,54.72
2022-12-08T03:29:54.966Z,63.67
2022-12-08T03:32:49.174Z,60.95
2022-12-08T03:35:38.210Z,56.30
2022-12-08T03:38:25.938Z,57.70
2022-12-08T03:41:08.158Z,53.42
2022-12-08T03:43:40.660Z,55.97
2022-12-08T03:46:08.887Z,51.95
2022-12-08T03:48:38.306Z,57.78
2022-12-08T03:51:07.318Z,59.67
2022-12-08T03:53:36.735Z,50.50
2022-12-08T03:56:14.819Z,52.75
2022-12-08T03:59:02.372Z,52.53
2022-12-08T04:01:52.599Z,51.22
2022-12-08T04:04:40.369Z,41.65
2022-12-08T04:07:27.979Z,47.35
2022-12-08T04:10:15.546Z,42.25
2022-12-08T04:13:03.150Z,48.70
2022-12-08T04:15:50.767Z,42.58
2022-12-08T04:18:38.466Z,40.72
2022-12-08T04:21:25.259Z,45.78
2022-12-08T04:24:15.287Z,40.22
2022-12-08T04:27:02.945Z,36.13
2022-12-08T04:29:52.892Z,38.10
2022-12-08T04:32:22.702Z,40.20
2022-12-08T04:35:10.304Z,36.53
2022-12-08T04:38:00.253Z,36.38
2022-12-08T04:40:47.975Z,40.47
2022-12-08T04:43:16.586Z,39.33
2022-12-08T04:45:49.625Z,48.40
2022-12-08T04:48:18.779Z,41.53
2022-12-08T04:50:49.683Z,42.78
2022-12-08T04:53:44.881Z,38.95
2022-12-08T04:56:33.995Z,40.53
2022-12-08T04:59:06.756Z,36.80
2022-12-08T05:01:56.999Z,37.42
2022-12-08T05:04:44.648Z,42.33
2022-12-08T05:07:32.405Z,39.58
2022-12-08T05:10:22.497Z,44.22
2022-12-08T05:13:10.365Z,42.10
2022-12-08T05:15:54.969Z,42.17
2022-12-08T05:18:26.495Z,46.95
2022-12-08T05:20:57.635Z,43.00
2022-12-08T05:23:25.968Z,46.33
2022-12-08T05:26:01.514Z,48.28
2022-12-08T05:28:49.190Z,46.55
2022-12-08T05:31:41.634Z,44.88
2022-12-08T05:34:31.793Z,44.30
2022-12-08T05:37:00.102Z,44.67
2022-12-08T05:39:32.873Z,45.83
2022-12-08T05:42:01.944Z,47.65
2022-12-08T05:44:33.820Z,46.33
2022-12-08T05:47:21.551Z,50.72
2022-12-08T05:49:58.072Z,51.30
2022-12-08T05:52:45.726Z,45.35
2022-12-08T05:55:27.242Z,47.08
2022-12-08T05:58:15.722Z,49.47
2022-12-08T06:00:55.153Z,44.40
2022-12-08T06:03:43.553Z,40.78
2022-12-08T06:06:31.469Z,45.28
2022-12-08T06:09:00.182Z,47.22
2022-12-08T06:11:31.191Z,50.70
2022-12-08T06:14:04.692Z,46.05
2022-12-08T06:16:36.510Z,48.17
2022-12-08T06:19:24.110Z,50.22
2022-12-08T06:22:11.712Z,53.15
2022-12-08T06:24:59.285Z,53.30
2022-12-08T06:27:46.873Z,51.85
2022-12-08T06:30:34.419Z,61.13
2022-12-08T06:33:22.078Z,57.08
2022-12-08T06:36:09.736Z,67.35
2022-12-08T06:38:57.492Z,60.47
2022-12-08T06:42:05.375Z,58.65
2022-12-08T06:44:36.399Z,61.53
2022-12-08T06:47:26.310Z,63.83
2022-12-08T06:50:16.666Z,60.47
2022-12-08T06:53:05.665Z,61.25
2022-12-08T06:55:59.923Z,52.92
2022-12-08T07:01:40.497Z,48.88
2022-12-08T07:04:28.132Z,51.30
2022-12-08T07:07:18.350Z,46.85
2022-12-08T07:10:08.903Z,54.95
2022-12-08T07:12:52.180Z,51.47
2022-12-08T07:15:27.113Z,46.92
2022-12-08T07:18:00.036Z,55.08
2022-12-08T07:23:00.425Z,57.13
2022-12-08T07:25:33.897Z,55.35
2022-12-08T07:28:21.426Z,48.42
2022-12-08T07:31:17.236Z,57.42
2022-12-08T07:34:04.983Z,49.35
2022-12-08T07:36:37.055Z,49.00
2022-12-08T07:39:05.905Z,51.45
2022-12-08T07:41:39.553Z,48.70
2022-12-08T07:44:09.498Z,47.90
2022-12-08T07:46:38.176Z,47.35
2022-12-08T07:49:06.806Z,51.80
2022-12-08T07:51:37.941Z,47.95
2022-12-08T07:54:12.448Z,42.85
2022-12-08T07:57:00.177Z,43.75
2022-12-08T07:59:31.464Z,41.53
2022-12-08T08:02:22.977Z,42.85
2022-12-08T08:04:51.838Z,45.35
2022-12-08T08:07:22.539Z,38.75
2022-12-08T08:09:50.985Z,50.10
2022-12-08T08:12:34.691Z,44.60
2022-12-08T08:15:05.126Z,44.28
2022-12-08T08:17:53.284Z,43.38
2022-12-08T08:20:36.262Z,38.53
2022-12-08T08:23:19.995Z,39.25
2022-12-08T08:26:07.656Z,42.83
2022-12-08T08:28:57.555Z,38.83
2022-12-08T08:31:45.298Z,43.33
2022-12-08T08:34:31.498Z,39.67
2022-12-08T08:37:19.397Z,43.42
2022-12-08T08:40:07.682Z,39.55
2022-12-08T08:42:55.455Z,42.03
2022-12-08T08:45:37.807Z,33.15
2022-12-08T08:48:25.917Z,37.92
2022-12-08T08:50:56.252Z,41.13
2022-12-08T08:53:27.307Z,46.33
2022-12-08T08:55:58.108Z,41.88
2022-12-08T08:58:28.757Z,45.90
2022-12-08T09:00:57.169Z,49.00
2022-12-08T09:03:39.404Z,48.00
2022-12-08T09:06:09.032Z,49.67
2022-12-08T09:08:38.495Z,51.35
2022-12-08T09:11:26.068Z,52.50
2022-12-08T09:14:16.321Z,52.88
2022-12-08T09:17:03.954Z,55.90
2022-12-08T09:19:51.511Z,51.83
2022-12-08T09:22:20.543Z,57.15
2022-12-08T09:24:49.595Z,71.57
2022-12-08T09:27:17.899Z,57.35
2022-12-08T09:29:53.596Z,67.20
2022-12-08T09:32:41.350Z,58.47
2022-12-08T09:35:14.336Z,46.20
2022-12-08T09:38:01.905Z,68.53
2022-12-08T09:40:53.240Z,75.03
2022-12-08T09:43:40.411Z,64.47
2022-12-08T09:46:11.420Z,70.55
2022-12-08T09:48:43.132Z,70.10
2022-12-08T09:51:12.311Z,71.78
2022-12-08T09:53:49.122Z,61.30
2022-12-08T09:56:23.844Z,62.33
2022-12-08T09:58:57.706Z,76.40
2022-12-08T10:01:33.909Z,67.15
2022-12-08T10:04:02.910Z,62.17
2022-12-08T10:06:48.937Z,69.78
2022-12-08T10:09:29.433Z,61.78
2022-12-08T10:12:01.082Z,62.00
2022-12-08T10:14:48.300Z,60.92
2022-12-08T10:17:37.926Z,65.63
2022-12-08T10:20:17.636Z,68.13
2022-12-08T10:23:15.706Z,60.70
2022-12-08T10:26:06.837Z,66.40
2022-12-08T10:29:01.293Z,65.75
2022-12-08T10:31:40.583Z,59.10
2022-12-08T10:34:27.994Z,71.75
2022-12-08T10:37:01.675Z,62.15
2022-12-08T10:39:59.402Z,60.30
2022-12-08T10:42:33.784Z,52.97
2022-12-08T10:45:10.245Z,65.43
2022-12-08T10:47:58.588Z,64.68
2022-12-08T10:50:42.640Z,67.82
2022-12-08T10:53:31.195Z,66.13
2022-12-08T10:56:18.360Z,61.90
2022-12-08T10:59:06.123Z,66.25
2022-12-08T11:01:55.122Z,68.82
2022-12-08T11:04:39.754Z,72.57
2022-12-08T11:07:22.930Z,57.40
2022-12-08T11:09:57.536Z,61.60
2022-12-08T11:12:29.212Z,69.32
2022-12-08T11:15:03.487Z,64.57
2022-12-08T11:17:39.638Z,67.35
2022-12-08T11:20:10.470Z,64.93
2022-12-08T11:22:51.767Z,62.83
2022-12-08T11:25:26.032Z,63.38
2022-12-08T11:27:58.500Z,70.35
2022-12-08T11:30:29.877Z,69.90
2022-12-08T11:33:07.048Z,61.15
2022-12-08T11:35:39.886Z,64.97
2022-12-08T11:38:23.374Z,69.28
2022-12-08T11:41:17.300Z,71.25
2022-12-08T11:44:03.100Z,57.42
2022-12-08T11:46:40.348Z,59.85
2022-12-08T11:49:15.121Z,64.45
2022-12-08T11:52:15.715Z,58.47
2022-12-08T11:55:17.055Z,65.30
2022-12-08T11:58:10.499Z,66.45
2022-12-08T12:00:51.505Z,61.13
2022-12-08T12:03:37.539Z,66.07
2022-12-08T12:06:46.459Z,61.55
2022-12-08T12:09:27.795Z,69.07
2022-12-08T12:12:14.353Z,62.37
2022-12-08T12:14:44.469Z,66.22
2022-12-08T12:17:24.692Z,71.63
2022-12-08T12:20:00.304Z,59.67
2022-12-08T12:22:32.214Z,78.97
2022-12-08T12:25:06.723Z,61.50
2022-12-08T12:27:46.525Z,65.05
2022-12-08T12:30:26.231Z,62.38
2022-12-08T12:33:15.635Z,60.50
2022-12-08T12:36:04.030Z,58.40
2022-12-08T12:39:06.235Z,57.90
2022-12-08T12:41:52.183Z,57.47
2022-12-08T12:44:30.865Z,56.45
2022-12-08T12:47:08.508Z,54.72
2022-12-08T12:49:43.847Z,69.63
2022-12-08T12:52:18.729Z,61.13
2022-12-08T12:54:50.240Z,63.17
2022-12-08T12:57:21.516Z,56.85
2022-12-08T12:59:55.471Z,67.82
2022-12-08T13:02:23.759Z,68.60
2022-12-08T13:05:12.755Z,61.63
2022-12-08T13:07:46.226Z,58.58
2022-12-08T13:10:21.185Z,58.97
2022-12-08T13:13:10.605Z,53.58
2022-12-08T13:15:40.915Z,44.67
2022-12-08T13:18:19.276Z,54.03
2022-12-08T13:20:52.476Z,41.63
2022-12-08T13:23:43.066Z,46.05
2022-12-08T13:26:20.445Z,43.60
2022-12-08T13:29:15.287Z,45.15
2022-12-08T13:31:51.348Z,46.45
2022-12-08T13:34:41.949Z,46.30
2022-12-08T13:37:13.571Z,51.17
2022-12-08T13:39:48.196Z,40.50
2022-12-08T13:42:22.271Z,58.30
2022-12-08T13:55:00.683Z,55.90
2022-12-08T13:57:19.715Z,47.65
2022-12-08T14:00:15.858Z,56.28
2022-12-08T14:03:03.490Z,54.03
2022-12-08T14:09:09.941Z,50.22
2022-12-08T14:12:09.130Z,51.67
2022-12-08T14:15:02.559Z,51.15
2022-12-08T14:17:36.598Z,47.15
2022-12-08T14:20:08.364Z,54.17
2022-12-08T14:22:43.130Z,63.17
2022-12-08T14:25:30.797Z,50.33
2022-12-08T14:28:18.394Z,49.20
2022-12-08T14:31:06.158Z,46.10
2022-12-08T14:33:56.368Z,44.33
2022-12-08T14:39:22.137Z,49.47
2022-12-08T14:42:08.091Z,49.70
2022-12-08T14:44:59.177Z,58.70
2022-12-08T14:47:34.848Z,57.47
2022-12-08T14:50:07.554Z,56.58
2022-12-08T14:52:44.319Z,53.20
2022-12-08T14:55:14.433Z,51.47
2022-12-08T14:57:49.361Z,56.15
2022-12-08T15:00:20.806Z,50.95
2022-12-08T15:02:56.735Z,45.33
2022-12-08T15:05:28.809Z,49.85
2022-12-08T15:08:03.797Z,46.03
2022-12-08T15:10:37.819Z,47.78
2022-12-08T15:13:11.878Z,46.38
2022-12-08T15:18:17.325Z,70.60
2022-12-08T15:23:20.298Z,51.15
2022-12-08T15:25:48.620Z,51.80
2022-12-08T15:28:30.096Z,49.28
2022-12-08T15:30:59.499Z,38.70
2022-12-08T15:33:37.295Z,52.45
2022-12-08T15:36:08.275Z,48.97
2022-12-08T15:38:55.936Z,56.63
2022-12-08T15:41:43.521Z,78.28
2022-12-08T15:44:23.877Z,69.20
2022-12-08T15:47:16.375Z,54.70
2022-12-08T15:50:05.069Z,90.07
2022-12-08T15:52:55.492Z,128.52
2022-12-08T15:55:58.081Z,93.40
2022-12-08T15:58:55.570Z,59.60
2022-12-08T16:01:44.160Z,93.97
2022-12-08T16:07:39.732Z,124.38
2022-12-08T16:10:45.426Z,104.00
2022-12-08T16:13:57.530Z,68.10
2022-12-08T16:16:48.544Z,57.33
2022-12-08T16:19:36.183Z,55.95
2022-12-08T16:25:19.770Z,63.53
2022-12-08T16:28:44.818Z,65.53
2022-12-08T16:31:20.069Z,69.28
2022-12-08T16:34:08.774Z,43.63
2022-12-08T16:36:56.524Z,56.55
2022-12-08T16:39:46.111Z,64.88
2022-12-08T16:42:39.635Z,58.40
2022-12-08T16:45:30.898Z,77.70
2022-12-08T16:48:01.699Z,50.20
2022-12-08T16:50:31.872Z,44.50
2022-12-08T16:53:09.039Z,52.80
2022-12-08T16:55:37.472Z,42.22
2022-12-08T16:58:25.163Z,53.92
2022-12-08T17:01:13.647Z,39.75
2022-12-08T17:07:11.462Z,44.30
2022-12-08T17:09:39.954Z,44.30
2022-12-08T17:12:08.803Z,44.33
2022-12-08T17:14:37.602Z,47.15
2022-12-08T17:17:06.367Z,47.17
2022-12-08T17:19:37.562Z,45.33
2022-12-08T17:22:06.040Z,45.72
2022-12-08T17:24:35.540Z,52.13
2022-12-08T17:27:06.823Z,47.63
2022-12-08T17:29:39.073Z,48.50
2022-12-08T17:32:09.381Z,54.15
2022-12-08T17:34:38.837Z,43.70
2022-12-08T17:37:09.993Z,45.10
2022-12-08T17:39:39.303Z,44.03
2022-12-08T17:42:10.734Z,51.75
2022-12-08T17:44:44.161Z,45.08
2022-12-08T17:47:15.338Z,37.65
2022-12-08T17:49:43.988Z,41.08
2022-12-08T17:52:12.903Z,32.35
2022-12-08T17:54:44.346Z,44.45
2022-12-08T17:57:15.326Z,40.78
2022-12-08T17:59:44.291Z,39.78
2022-12-08T18:02:15.427Z,40.95
2022-12-08T18:04:44.165Z,41.97
2022-12-08T18:07:16.639Z,40.30
2022-12-08T18:10:05.037Z,44.58
2022-12-08T18:12:53.665Z,41.72
2022-12-08T18:15:42.569Z,40.13
2022-12-08T18:18:13.177Z,41.30
2022-12-08T18:20:44.145Z,49.60
2022-12-08T18:23:15.242Z,35.53
2022-12-08T18:25:44.045Z,40.40
2022-12-08T18:28:12.741Z,48.65
2022-12-08T18:30:41.554Z,43.33
2022-12-08T18:33:29.236Z,41.35
2022-12-08T18:35:58.254Z,45.15
2022-12-08T18:38:46.367Z,39.22
2022-12-08T18:41:36.461Z,36.72
2022-12-08T18:44:24.584Z,43.88
2022-12-08T18:47:12.236Z,42.95
2022-12-08T18:49:40.599Z,37.33
2022-12-08T18:52:10.317Z,45.28
2022-12-08T18:55:05.281Z,41.72
2022-12-08T18:57:36.054Z,38.35
2022-12-08T19:00:07.849Z,37.50
2022-12-08T19:02:55.924Z,42.20
2022-12-08T19:05:26.322Z,47.45
2022-12-08T19:07:55.461Z,39.53
2022-12-08T19:10:43.360Z,39.70
2022-12-08T19:13:34.081Z,38.92
2022-12-08T19:16:22.043Z,71.78
2022-12-08T19:19:08.393Z,45.50
2022-12-08T19:21:56.134Z,42.03
2022-12-08T19:24:46.286Z,47.17
2022-12-08T19:27:34.947Z,41.38
2022-12-08T19:30:22.642Z,41.05
2022-12-08T19:33:10.430Z,44.97
2022-12-08T19:36:00.467Z,44.53
2022-12-08T19:39:08.403Z,48.15
2022-12-08T19:42:13.781Z,43.65
2022-12-08T19:44:55.345Z,43.67
2022-12-08T19:47:29.296Z,52.08
2022-12-08T19:50:13.940Z,42.78
2022-12-08T19:52:44.086Z,47.05
2022-12-08T19:55:32.276Z,43.03
2022-12-08T19:58:11.946Z,43.85
2022-12-08T20:00:59.738Z,49.20
2022-12-08T20:03:47.328Z,48.42
2022-12-08T20:06:20.246Z,55.25
2022-12-08T20:08:50.933Z,53.35
2022-12-08T20:11:22.583Z,50.45
2022-12-08T20:13:52.265Z,42.13
2022-12-08T20:16:28.775Z,47.60
2022-12-08T20:19:16.567Z,48.03
2022-12-08T20:22:06.807Z,52.60
2022-12-08T20:25:00.778Z,48.28
2022-12-08T20:27:48.855Z,49.28
2022-12-08T20:30:38.781Z,56.42
2022-12-08T20:33:28.971Z,58.28
2022-12-08T20:36:18.639Z,57.70
2022-12-08T20:39:06.662Z,51.80
2022-12-08T20:41:56.867Z,52.78
2022-12-08T20:44:44.783Z,49.35
2022-12-08T20:47:32.799Z,42.60
2022-12-08T20:50:21.027Z,45.50
2022-12-08T20:53:12.421Z,47.85
2022-12-08T20:56:00.230Z,43.13
2022-12-08T20:58:48.311Z,48.65
2022-12-08T21:01:36.211Z,43.83
2022-12-08T21:04:26.623Z,62.88
2022-12-08T21:07:14.703Z,54.33
2022-12-08T21:10:05.386Z,48.92
2022-12-08T21:12:56.175Z,52.17
2022-12-08T21:15:47.115Z,57.45
2022-12-08T21:18:39.405Z,83.85
2022-12-08T21:21:30.045Z,72.25
2022-12-08T21:24:18.713Z,71.78
2022-12-08T21:27:07.040Z,63.78
2022-12-08T21:29:57.436Z,52.70
2022-12-08T21:32:45.450Z,52.75
2022-12-08T21:35:35.797Z,50.55
2022-12-08T21:38:23.795Z,68.80
2022-12-08T21:41:13.171Z,68.65
2022-12-08T21:44:03.603Z,66.70
2022-12-08T21:46:51.680Z,56.85
2022-12-08T21:49:39.450Z,52.33
2022-12-08T21:52:27.321Z,54.35
2022-12-08T21:55:19.291Z,54.13
2022-12-08T21:58:09.698Z,48.35
2022-12-08T22:00:49.843Z,48.45
2022-12-08T22:03:38.422Z,54.65
2022-12-08T22:06:26.628Z,48.88
2022-12-08T22:08:56.695Z,46.83
2022-12-08T22:11:26.089Z,46.72
2022-12-08T22:13:57.028Z,46.10
2022-12-08T22:16:28.249Z,44.85
2022-12-08T22:18:57.931Z,49.70
2022-12-08T22:21:29.892Z,52.67
2022-12-08T22:23:59.122Z,47.22
2022-12-08T22:26:28.280Z,50.28
2022-12-08T22:28:56.631Z,57.05
2022-12-08T22:31:44.359Z,47.80
2022-12-08T22:34:29.960Z,46.55
2022-12-08T22:37:17.885Z,49.45
2022-12-08T22:40:06.459Z,48.60
2022-12-08T22:42:36.628Z,52.95
2022-12-08T22:45:10.074Z,45.85
2022-12-08T22:47:44.538Z,59.00
2022-12-08T22:50:13.230Z,54.10
2022-12-08T22:53:00.948Z,56.95
2022-12-08T22:55:48.644Z,58.65
2022-12-08T22:58:36.616Z,53.58
2022-12-08T23:01:25.459Z,59.22
2022-12-08T23:04:17.723Z,60.67
2022-12-08T23:07:06.413Z,52.63
2022-12-08T23:09:54.156Z,56.15
2022-12-08T23:12:44.385Z,55.05
2022-12-08T23:15:31.924Z,65.47
2022-12-08T23:18:22.092Z,55.10
2022-12-08T23:21:19.850Z,54.40
2022-12-08T23:24:12.539Z,55.72
2022-12-08T23:26:43.034Z,48.88
2022-12-08T23:29:14.324Z,57.33
2022-12-08T23:31:45.250Z,54.55
2022-12-08T23:34:13.867Z,61.00
2022-12-08T23:37:01.712Z,65.15
2022-12-08T23:39:49.397Z,59.80
2022-12-08T23:42:39.405Z,60.95
2022-12-08T23:45:29.623Z,60.05
2022-12-08T23:47:58.771Z,63.30
2022-12-08T23:50:28.612Z,62.65
2022-12-08T23:53:01.831Z,62.85
2022-12-08T23:55:32.100Z,58.42
2022-12-08T23:58:19.749Z,53.15
